createdAt,value
2023-03-28T00:00:07.310Z,8.83
2023-03-28T00:00:35.738Z,8.82
2023-03-28T00:01:11.322Z,8.80
2023-03-28T00:01:36.813Z,8.79
2023-03-28T00:02:00.522Z,8.78
2023-03-28T00:02:24.060Z,8.77
2023-03-28T00:02:47.713Z,8.76
2023-03-28T00:03:14.663Z,8.77
2023-03-28T00:03:40.577Z,8.76
2023-03-28T00:04:04.938Z,8.75
2023-03-28T00:04:30.040Z,8.74
2023-03-28T00:04:53.159Z,8.74
2023-03-28T00:05:17.616Z,8.75
2023-03-28T00:05:41.216Z,8.75
2023-03-28T00:06:05.956Z,8.77
2023-03-28T00:06:29.127Z,8.78
2023-03-28T00:06:53.551Z,8.79
2023-03-28T00:07:16.651Z,8.81
2023-03-28T00:07:42.731Z,8.82
2023-03-28T00:08:06.966Z,8.84
2023-03-28T00:08:32.276Z,8.85
2023-03-28T00:08:56.068Z,8.87
2023-03-28T00:09:22.756Z,8.88
2023-03-28T00:09:48.842Z,8.88
2023-03-28T00:10:12.973Z,8.88
2023-03-28T00:10:36.495Z,8.88
2023-03-28T00:11:21.494Z,8.88
2023-03-28T00:11:45.021Z,8.86
2023-03-28T00:12:08.112Z,8.86
2023-03-28T00:12:31.245Z,8.84
2023-03-28T00:12:54.400Z,8.83
2023-03-28T00:13:20.155Z,8.83
2023-03-28T00:13:43.351Z,8.81
2023-03-28T00:14:10.553Z,8.81
2023-03-28T00:14:35.832Z,8.80
2023-03-28T00:15:01.081Z,8.79
2023-03-28T00:15:25.833Z,8.78
2023-03-28T00:15:53.045Z,8.77
2023-03-28T00:16:18.650Z,8.75
2023-03-28T00:16:45.848Z,8.74
2023-03-28T00:17:10.254Z,8.73
2023-03-28T00:17:35.140Z,8.72
2023-03-28T00:18:00.358Z,8.71
2023-03-28T00:18:23.593Z,8.71
2023-03-28T00:18:47.564Z,8.70
2023-03-28T00:19:11.916Z,8.68
2023-03-28T00:19:40.751Z,8.68
2023-03-28T00:20:06.823Z,8.66
2023-03-28T00:20:32.243Z,8.64
2023-03-28T00:20:55.768Z,8.62
2023-03-28T00:21:25.946Z,8.61
2023-03-28T00:21:49.467Z,8.59
2023-03-28T00:22:12.882Z,8.58
2023-03-28T00:22:38.313Z,8.57
2023-03-28T00:23:01.361Z,8.55
2023-03-28T00:23:24.995Z,8.54
2023-03-28T00:23:52.708Z,8.52
2023-03-28T00:24:16.946Z,8.51
2023-03-28T00:24:39.967Z,8.49
2023-03-28T00:25:03.279Z,8.48
2023-03-28T00:25:27.205Z,8.47
2023-03-28T00:25:50.320Z,8.45
2023-03-28T00:26:14.675Z,8.45
2023-03-28T00:26:37.776Z,8.43
2023-03-28T00:27:02.024Z,8.42
2023-03-28T00:27:25.537Z,8.42
2023-03-28T00:27:48.551Z,8.40
2023-03-28T00:28:11.707Z,8.39
2023-03-28T00:28:35.408Z,8.39
2023-03-28T00:28:58.606Z,8.39
2023-03-28T00:29:26.331Z,8.39
2023-03-28T00:29:49.438Z,8.40
2023-03-28T00:30:13.164Z,8.41
2023-03-28T00:30:36.792Z,8.41
2023-03-28T00:31:07.434Z,8.43
2023-03-28T00:31:30.849Z,8.44
2023-03-28T00:31:54.232Z,8.45
2023-03-28T00:32:17.325Z,8.46
2023-03-28T00:32:41.080Z,8.47
2023-03-28T00:33:09.080Z,8.47
2023-03-28T00:33:32.803Z,8.48
2023-03-28T00:33:55.918Z,8.48
2023-03-28T00:34:19.044Z,8.47
2023-03-28T00:34:42.351Z,8.47
2023-03-28T00:35:06.286Z,8.46
2023-03-28T00:35:29.616Z,8.44
2023-03-28T00:35:52.926Z,8.43
2023-03-28T00:36:18.703Z,8.42
2023-03-28T00:36:48.452Z,8.42
2023-03-28T00:37:17.505Z,8.40
2023-03-28T00:37:42.682Z,8.39
2023-03-28T00:38:06.285Z,8.38
2023-03-28T00:38:29.402Z,8.37
2023-03-28T00:38:54.020Z,8.37
2023-03-28T00:39:18.083Z,8.36
2023-03-28T00:39:41.399Z,8.35
2023-03-28T00:40:07.891Z,8.34
2023-03-28T00:40:35.708Z,8.34
2023-03-28T00:41:00.209Z,8.32
2023-03-28T00:41:23.794Z,8.31
2023-03-28T00:41:48.325Z,8.31
2023-03-28T00:42:13.700Z,8.30
2023-03-28T00:42:44.167Z,8.28
2023-03-28T00:43:12.709Z,8.28
2023-03-28T00:43:40.992Z,8.28
2023-03-28T00:44:24.197Z,8.27
2023-03-28T00:44:56.344Z,8.26
2023-03-28T00:45:21.813Z,8.26
2023-03-28T00:45:47.309Z,8.24
2023-03-28T00:46:21.615Z,8.24
2023-03-28T00:46:45.055Z,8.24
2023-03-28T00:47:11.205Z,8.23
2023-03-28T00:47:46.577Z,8.23
2023-03-28T00:48:14.192Z,8.22
2023-03-28T00:48:39.672Z,8.22
2023-03-28T00:49:03.480Z,8.22
2023-03-28T00:49:27.748Z,8.21
2023-03-28T00:49:55.673Z,8.21
2023-03-28T00:50:22.784Z,8.20
2023-03-28T00:50:48.938Z,8.19
2023-03-28T00:51:14.822Z,8.18
2023-03-28T00:51:41.724Z,8.18
2023-03-28T00:52:04.671Z,8.18
2023-03-28T00:52:29.994Z,8.17
2023-03-28T00:52:59.143Z,8.17
2023-03-28T00:53:23.694Z,8.17
2023-03-28T00:53:46.663Z,8.18
2023-03-28T00:54:13.397Z,8.20
2023-03-28T00:54:39.828Z,8.21
2023-03-28T00:55:04.738Z,8.23
2023-03-28T00:55:54.646Z,8.25
2023-03-28T00:56:18.271Z,8.28
2023-03-28T00:56:44.471Z,8.31
2023-03-28T00:57:07.704Z,8.32
2023-03-28T00:57:31.605Z,8.33
2023-03-28T00:57:55.132Z,8.35
2023-03-28T00:58:20.087Z,8.35
2023-03-28T00:58:45.038Z,8.36
2023-03-28T00:59:09.486Z,8.36
2023-03-28T00:59:33.105Z,8.37
2023-03-28T00:59:58.162Z,8.36
2023-03-28T01:00:21.564Z,8.36
2023-03-28T01:00:48.071Z,8.36
2023-03-28T01:01:15.990Z,8.35
2023-03-28T01:01:41.098Z,8.34
2023-03-28T01:02:07.654Z,8.33
2023-03-28T01:02:34.707Z,8.33
2023-03-28T01:02:59.205Z,8.31
2023-03-28T01:03:25.501Z,8.31
2023-03-28T01:03:56.471Z,8.30
2023-03-28T01:04:20.588Z,8.29
2023-03-28T01:04:49.669Z,8.29
2023-03-28T01:05:17.367Z,8.28
2023-03-28T01:05:40.472Z,8.28
2023-03-28T01:06:04.683Z,8.26
2023-03-28T01:06:38.669Z,8.26
2023-03-28T01:07:01.895Z,8.26
2023-03-28T01:07:27.038Z,8.25
2023-03-28T01:07:51.604Z,8.25
2023-03-28T01:08:21.352Z,8.25
2023-03-28T01:08:44.972Z,8.24
2023-03-28T01:09:08.700Z,8.24
2023-03-28T01:09:31.858Z,8.24
2023-03-28T01:09:55.747Z,8.24
2023-03-28T01:10:19.709Z,8.23
2023-03-28T01:10:47.307Z,8.23
2023-03-28T01:11:15.009Z,8.23
2023-03-28T01:11:38.600Z,8.23
2023-03-28T01:12:03.700Z,8.22
2023-03-28T01:12:27.727Z,8.22
2023-03-28T01:12:50.942Z,8.22
2023-03-28T01:13:16.101Z,8.21
2023-03-28T01:13:42.214Z,8.21
2023-03-28T01:14:07.263Z,8.20
2023-03-28T01:14:30.865Z,8.21
2023-03-28T01:14:56.228Z,8.19
2023-03-28T01:15:20.055Z,8.19
2023-03-28T01:15:52.701Z,8.19
2023-03-28T01:16:17.043Z,8.18
2023-03-28T01:16:42.305Z,8.19
2023-03-28T01:17:05.814Z,8.19
2023-03-28T01:17:30.975Z,8.21
2023-03-28T01:17:54.233Z,8.22
2023-03-28T01:18:18.829Z,8.23
2023-03-28T01:18:42.206Z,8.24
2023-03-28T01:19:06.795Z,8.27
2023-03-28T01:19:36.355Z,8.29
2023-03-28T01:20:17.642Z,8.31
2023-03-28T01:20:51.735Z,8.35
2023-03-28T01:21:15.571Z,8.36
2023-03-28T01:22:06.832Z,8.37
2023-03-28T01:22:56.842Z,8.37
2023-03-28T01:23:39.371Z,8.38
2023-03-28T01:24:21.605Z,8.38
2023-03-28T01:25:04.939Z,8.38
2023-03-28T01:25:41.299Z,8.38
2023-03-28T01:26:11.038Z,8.37
2023-03-28T01:26:34.154Z,8.37
2023-03-28T01:26:57.350Z,8.36
2023-03-28T01:27:38.887Z,8.36
2023-03-28T01:28:05.680Z,8.36
2023-03-28T01:28:38.513Z,8.36
2023-03-28T01:29:20.352Z,8.35
2023-03-28T01:29:51.228Z,8.35
2023-03-28T01:30:14.707Z,8.34
2023-03-28T01:31:10.963Z,8.35
2023-03-28T01:31:58.207Z,8.34
2023-03-28T01:32:46.086Z,8.34
2023-03-28T01:33:20.791Z,8.33
2023-03-28T01:34:10.403Z,8.33
2023-03-28T01:34:48.644Z,8.32
2023-03-28T01:35:26.914Z,8.32
2023-03-28T01:35:50.903Z,8.30
2023-03-28T01:36:34.110Z,8.30
2023-03-28T01:37:14.996Z,8.30
2023-03-28T01:37:45.132Z,8.29
2023-03-28T01:38:28.535Z,8.29
2023-03-28T01:38:54.729Z,8.28
2023-03-28T01:39:26.839Z,8.28
2023-03-28T01:40:13.169Z,8.26
2023-03-28T01:40:48.572Z,8.27
2023-03-28T01:41:19.950Z,8.28
2023-03-28T01:41:58.910Z,8.30
2023-03-28T01:42:38.087Z,8.33
2023-03-28T01:43:19.877Z,8.36
2023-03-28T01:43:48.960Z,8.38
2023-03-28T01:44:24.256Z,8.39
2023-03-28T01:44:47.670Z,8.41
2023-03-28T01:45:43.205Z,8.42
2023-03-28T01:46:09.330Z,8.44
2023-03-28T01:46:33.724Z,8.44
2023-03-28T01:47:01.756Z,8.44
2023-03-28T01:47:26.004Z,8.43
2023-03-28T01:47:51.316Z,8.44
2023-03-28T01:48:29.702Z,8.44
2023-03-28T01:49:04.927Z,8.43
2023-03-28T01:49:28.820Z,8.42
2023-03-28T01:49:52.878Z,8.42
2023-03-28T01:50:36.321Z,8.42
2023-03-28T01:51:05.366Z,8.41
2023-03-28T01:51:47.197Z,8.41
2023-03-28T01:52:13.551Z,8.40
2023-03-28T01:52:41.502Z,8.40
2023-03-28T01:53:17.810Z,8.40
2023-03-28T01:53:40.927Z,8.39
2023-03-28T01:54:18.253Z,8.38
2023-03-28T01:54:44.137Z,8.38
2023-03-28T01:55:14.505Z,8.37
2023-03-28T01:55:43.144Z,8.37
2023-03-28T01:56:30.951Z,8.36
2023-03-28T01:56:58.094Z,8.35
2023-03-28T01:57:31.408Z,8.34
2023-03-28T01:58:07.554Z,8.33
2023-03-28T01:58:44.576Z,8.32
2023-03-28T01:59:15.156Z,8.30
2023-03-28T02:00:19.842Z,8.29
2023-03-28T02:01:05.658Z,8.28
2023-03-28T02:01:37.065Z,8.26
2023-03-28T02:02:15.707Z,8.25
2023-03-28T02:02:44.236Z,8.25
2023-03-28T02:03:23.017Z,8.23
2023-03-28T02:03:52.114Z,8.22
2023-03-28T02:04:31.187Z,8.21
2023-03-28T02:04:57.126Z,8.20
2023-03-28T02:05:23.754Z,8.19
2023-03-28T02:05:53.524Z,8.19
2023-03-28T02:06:17.551Z,8.18
2023-03-28T02:06:47.110Z,8.18
2023-03-28T02:07:13.272Z,8.19
2023-03-28T02:07:57.674Z,8.20
2023-03-28T02:08:41.680Z,8.22
2023-03-28T02:09:32.537Z,8.25
2023-03-28T02:10:01.871Z,8.27
2023-03-28T02:10:57.579Z,8.31
2023-03-28T02:11:30.214Z,8.32
2023-03-28T02:12:25.339Z,8.32
2023-03-28T02:13:02.723Z,8.32
2023-03-28T02:13:58.914Z,8.30
2023-03-28T02:14:49.035Z,8.28
2023-03-28T02:15:23.904Z,8.26
2023-03-28T02:16:13.445Z,8.24
2023-03-28T02:16:57.570Z,8.23
2023-03-28T02:17:43.661Z,8.21
2023-03-28T02:18:31.684Z,8.20
2023-03-28T02:19:14.743Z,8.18
2023-03-28T02:19:59.438Z,8.16
2023-03-28T02:20:41.778Z,8.15
2023-03-28T02:21:34.349Z,8.13
2023-03-28T02:22:25.083Z,8.12
2023-03-28T02:23:15.808Z,8.11
2023-03-28T02:23:57.636Z,8.10
2023-03-28T02:24:26.886Z,8.09
2023-03-28T02:25:05.990Z,8.08
2023-03-28T02:25:49.865Z,8.07
2023-03-28T02:26:33.609Z,8.09
2023-03-28T02:27:23.314Z,8.11
2023-03-28T02:28:06.678Z,8.14
2023-03-28T02:28:39.205Z,8.16
2023-03-28T02:29:08.961Z,8.17
2023-03-28T02:29:42.504Z,8.19
2023-03-28T02:30:28.629Z,8.19
2023-03-28T02:30:55.533Z,8.20
2023-03-28T02:31:18.653Z,8.20
2023-03-28T02:31:42.101Z,8.19
2023-03-28T02:32:06.233Z,8.18
2023-03-28T02:32:34.189Z,8.18
2023-03-28T02:33:05.065Z,8.17
2023-03-28T02:33:33.244Z,8.15
2023-03-28T02:33:59.028Z,8.14
2023-03-28T02:34:22.001Z,8.13
2023-03-28T02:34:45.867Z,8.12
2023-03-28T02:35:09.296Z,8.11
2023-03-28T02:36:02.078Z,8.10
2023-03-28T02:36:45.014Z,8.08
2023-03-28T02:37:11.114Z,8.05
2023-03-28T02:37:41.353Z,8.04
2023-03-28T02:38:27.583Z,8.02
2023-03-28T02:39:13.508Z,8.01
2023-03-28T02:39:59.875Z,7.98
2023-03-28T02:40:22.957Z,7.97
2023-03-28T02:41:09.597Z,7.96
2023-03-28T02:41:47.632Z,7.95
2023-03-28T02:42:16.171Z,7.94
2023-03-28T02:42:42.251Z,7.93
2023-03-28T02:43:05.974Z,7.92
2023-03-28T02:43:35.649Z,7.91
2023-03-28T02:44:34.348Z,7.90
2023-03-28T02:44:57.460Z,7.89
2023-03-28T02:45:23.953Z,7.88
2023-03-28T02:45:56.316Z,7.87
2023-03-28T02:46:21.781Z,7.86
2023-03-28T02:47:03.663Z,7.87
2023-03-28T02:47:32.107Z,7.88
2023-03-28T02:47:58.526Z,7.90
2023-03-28T02:48:47.473Z,7.90
2023-03-28T02:49:14.486Z,7.92
2023-03-28T02:49:50.834Z,7.93
2023-03-28T02:50:18.977Z,7.95
2023-03-28T02:50:46.928Z,7.95
2023-03-28T02:51:30.343Z,7.95
2023-03-28T02:52:09.576Z,7.95
2023-03-28T02:52:37.491Z,7.94
2023-03-28T02:53:27.337Z,7.92
2023-03-28T02:54:10.979Z,7.91
2023-03-28T02:54:43.102Z,7.89
2023-03-28T02:55:17.690Z,7.87
2023-03-28T02:56:07.660Z,7.85
2023-03-28T02:57:01.518Z,7.84
2023-03-28T02:57:49.014Z,7.82
2023-03-28T02:58:23.071Z,7.81
2023-03-28T02:58:51.816Z,7.80
2023-03-28T02:59:28.640Z,7.80
2023-03-28T02:59:53.997Z,7.79
2023-03-28T03:00:18.724Z,7.78
2023-03-28T03:00:43.128Z,7.78
2023-03-28T03:01:07.052Z,7.78
2023-03-28T03:01:31.100Z,7.76
2023-03-28T03:01:54.481Z,7.76
2023-03-28T03:02:18.112Z,7.76
2023-03-28T03:02:42.305Z,7.75
2023-03-28T03:03:05.639Z,7.75
2023-03-28T03:03:28.681Z,7.74
2023-03-28T03:03:52.271Z,7.74
2023-03-28T03:04:17.484Z,7.74
2023-03-28T03:04:40.873Z,7.73
2023-03-28T03:05:04.407Z,7.73
2023-03-28T03:05:27.616Z,7.73
2023-03-28T03:05:50.936Z,7.73
2023-03-28T03:06:14.456Z,7.73
2023-03-28T03:06:37.576Z,7.74
2023-03-28T03:07:03.476Z,7.75
2023-03-28T03:07:28.708Z,7.76
2023-03-28T03:07:52.649Z,7.77
2023-03-28T03:08:16.275Z,7.79
2023-03-28T03:08:46.495Z,7.80
2023-03-28T03:09:11.495Z,7.82
2023-03-28T03:09:36.150Z,7.83
2023-03-28T03:10:00.945Z,7.84
2023-03-28T03:10:25.644Z,7.85
2023-03-28T03:10:48.761Z,7.85
2023-03-28T03:11:13.043Z,7.85
2023-03-28T03:11:36.943Z,7.86
2023-03-28T03:12:00.664Z,7.85
2023-03-28T03:12:24.385Z,7.85
2023-03-28T03:12:52.094Z,7.84
2023-03-28T03:13:16.811Z,7.83
2023-03-28T03:13:39.964Z,7.81
2023-03-28T03:14:02.980Z,7.81
2023-03-28T03:14:27.341Z,7.80
2023-03-28T03:14:52.072Z,7.79
2023-03-28T03:15:35.804Z,7.77
2023-03-28T03:16:16.168Z,7.76
2023-03-28T03:16:39.438Z,7.75
2023-03-28T03:17:05.868Z,7.74
2023-03-28T03:17:29.181Z,7.73
2023-03-28T03:17:52.881Z,7.72
2023-03-28T03:18:20.810Z,7.72
2023-03-28T03:18:43.930Z,7.70
2023-03-28T03:19:07.684Z,7.69
2023-03-28T03:19:31.993Z,7.68
2023-03-28T03:19:56.338Z,7.67
2023-03-28T03:20:19.882Z,7.66
2023-03-28T03:20:45.777Z,7.65
2023-03-28T03:21:12.425Z,7.63
2023-03-28T03:21:39.380Z,7.63
2023-03-28T03:22:07.444Z,7.62
2023-03-28T03:22:31.802Z,7.62
2023-03-28T03:22:55.627Z,7.61
2023-03-28T03:23:18.937Z,7.61
2023-03-28T03:23:42.052Z,7.62
2023-03-28T03:24:05.580Z,7.63
2023-03-28T03:24:28.687Z,7.64
2023-03-28T03:24:56.608Z,7.67
2023-03-28T03:25:20.159Z,7.68
2023-03-28T03:25:56.912Z,7.71
2023-03-28T03:26:58.832Z,7.75
2023-03-28T03:27:22.658Z,7.76
2023-03-28T03:27:47.924Z,7.77
2023-03-28T03:28:13.310Z,7.78
2023-03-28T03:28:39.881Z,7.78
2023-03-28T03:29:03.195Z,7.78
2023-03-28T03:29:27.533Z,7.78
2023-03-28T03:30:10.525Z,7.76
2023-03-28T03:30:53.548Z,7.75
2023-03-28T03:31:24.295Z,7.75
2023-03-28T03:32:07.388Z,7.73
2023-03-28T03:32:36.863Z,7.73
2023-03-28T03:33:05.661Z,7.72
2023-03-28T03:33:30.598Z,7.72
2023-03-28T03:33:59.173Z,7.72
2023-03-28T03:34:29.857Z,7.71
2023-03-28T03:34:53.995Z,7.70
2023-03-28T03:35:17.254Z,7.69
2023-03-28T03:35:42.335Z,7.70
2023-03-28T03:36:06.132Z,7.69
2023-03-28T03:36:30.746Z,7.69
2023-03-28T03:36:56.333Z,7.69
2023-03-28T03:37:19.632Z,7.69
2023-03-28T03:37:42.957Z,7.69
2023-03-28T03:38:06.379Z,7.69
2023-03-28T03:38:30.509Z,7.69
2023-03-28T03:38:53.726Z,7.67
2023-03-28T03:39:18.789Z,7.67
2023-03-28T03:39:42.148Z,7.67
2023-03-28T03:40:06.767Z,7.67
2023-03-28T03:40:30.578Z,7.66
2023-03-28T03:40:55.226Z,7.66
2023-03-28T03:41:19.063Z,7.65
2023-03-28T03:41:42.173Z,7.65
2023-03-28T03:42:05.609Z,7.67
2023-03-28T03:42:29.897Z,7.68
2023-03-28T03:42:53.564Z,7.70
2023-03-28T03:43:16.877Z,7.71
2023-03-28T03:43:41.423Z,7.73
2023-03-28T03:44:04.761Z,7.74
2023-03-28T03:44:28.890Z,7.76
2023-03-28T03:44:54.583Z,7.78
2023-03-28T03:45:18.692Z,7.79
2023-03-28T03:45:42.071Z,7.80
2023-03-28T03:46:05.731Z,7.82
2023-03-28T03:46:33.818Z,7.83
2023-03-28T03:46:58.404Z,7.83
2023-03-28T03:47:21.932Z,7.83
2023-03-28T03:47:46.614Z,7.83
2023-03-28T03:48:09.761Z,7.83
2023-03-28T03:48:34.131Z,7.83
2023-03-28T03:48:58.536Z,7.83
2023-03-28T03:49:22.408Z,7.83
2023-03-28T03:49:46.138Z,7.82
2023-03-28T03:50:09.655Z,7.82
2023-03-28T03:50:33.280Z,7.81
2023-03-28T03:50:57.021Z,7.81
2023-03-28T03:51:20.351Z,7.80
2023-03-28T03:51:45.288Z,7.79
2023-03-28T03:52:11.676Z,7.78
2023-03-28T03:52:42.253Z,7.77
2023-03-28T03:53:07.663Z,7.77
2023-03-28T03:53:36.664Z,7.76
2023-03-28T03:54:03.865Z,7.75
2023-03-28T03:54:31.216Z,7.75
2023-03-28T03:54:55.620Z,7.74
2023-03-28T03:55:20.951Z,7.74
2023-03-28T03:55:44.445Z,7.73
2023-03-28T03:56:09.254Z,7.74
2023-03-28T03:56:52.954Z,7.72
2023-03-28T03:57:16.364Z,7.71
2023-03-28T03:57:39.876Z,7.72
2023-03-28T03:58:04.108Z,7.71
2023-03-28T03:58:27.528Z,7.70
2023-03-28T03:58:55.857Z,7.70
2023-03-28T03:59:22.259Z,7.70
2023-03-28T03:59:48.526Z,7.72
2023-03-28T04:00:14.922Z,7.73
2023-03-28T04:00:44.895Z,7.74
2023-03-28T04:01:21.403Z,7.76
2023-03-28T04:01:45.459Z,7.77
2023-03-28T04:02:29.352Z,7.80
2023-03-28T04:02:57.051Z,7.82
2023-03-28T04:03:24.308Z,7.83
2023-03-28T04:03:50.031Z,7.84
2023-03-28T04:04:18.856Z,7.84
2023-03-28T04:05:04.962Z,7.84
2023-03-28T04:05:42.948Z,7.84
2023-03-28T04:06:07.677Z,7.84
2023-03-28T04:06:31.081Z,7.84
2023-03-28T04:08:04.764Z,7.88
2023-03-28T04:08:33.729Z,7.83
2023-03-28T04:08:58.377Z,7.82
2023-03-28T04:09:39.777Z,7.82
2023-03-28T04:10:03.713Z,7.83
2023-03-28T04:10:28.051Z,7.82
2023-03-28T04:10:51.336Z,7.82
2023-03-28T04:11:14.282Z,7.81
2023-03-28T04:11:39.031Z,7.82
2023-03-28T04:12:02.361Z,7.81
2023-03-28T04:12:26.381Z,7.81
2023-03-28T04:12:51.338Z,7.81
2023-03-28T04:13:14.267Z,7.81
2023-03-28T04:13:37.869Z,7.81
2023-03-28T04:14:04.363Z,7.80
2023-03-28T04:14:31.874Z,7.80
2023-03-28T04:15:13.840Z,7.81
2023-03-28T04:15:57.260Z,7.84
2023-03-28T04:16:28.118Z,7.86
2023-03-28T04:17:05.080Z,7.89
2023-03-28T04:17:30.300Z,7.91
2023-03-28T04:17:56.996Z,7.93
2023-03-28T04:18:21.090Z,7.94
2023-03-28T04:18:51.138Z,7.95
2023-03-28T04:19:18.343Z,7.97
2023-03-28T04:19:41.930Z,7.98
2023-03-28T04:20:14.037Z,7.99
2023-03-28T04:21:17.107Z,7.99
2023-03-28T04:21:42.696Z,7.99
2023-03-28T04:22:08.265Z,7.99
2023-03-28T04:22:31.766Z,7.99
2023-03-28T04:22:55.164Z,7.99
2023-03-28T04:23:20.545Z,7.98
2023-03-28T04:23:44.383Z,7.98
2023-03-28T04:24:24.386Z,7.97
2023-03-28T04:25:07.511Z,7.96
2023-03-28T04:25:33.036Z,7.95
2023-03-28T04:26:02.730Z,7.95
2023-03-28T04:26:46.032Z,7.94
2023-03-28T04:27:09.935Z,7.94
2023-03-28T04:27:34.381Z,7.93
2023-03-28T04:27:57.592Z,7.93
2023-03-28T04:28:25.646Z,7.93
2023-03-28T04:29:04.187Z,7.93
2023-03-28T04:29:32.813Z,7.92
2023-03-28T04:30:22.518Z,7.93
2023-03-28T04:31:12.337Z,7.94
2023-03-28T04:32:13.891Z,7.99
2023-03-28T04:32:55.602Z,8.02
2023-03-28T04:33:25.227Z,8.04
2023-03-28T04:33:49.012Z,8.06
2023-03-28T04:34:14.169Z,8.07
2023-03-28T04:34:51.193Z,8.08
2023-03-28T04:35:16.660Z,8.10
2023-03-28T04:35:41.047Z,8.10
2023-03-28T04:36:04.583Z,8.09
2023-03-28T04:36:29.481Z,8.09
2023-03-28T04:37:02.041Z,8.09
2023-03-28T04:37:27.988Z,8.08
2023-03-28T04:37:53.927Z,8.07
2023-03-28T04:38:20.714Z,8.06
2023-03-28T04:38:46.020Z,8.05
2023-03-28T04:39:22.028Z,8.04
2023-03-28T04:40:16.550Z,8.01
2023-03-28T04:40:59.387Z,7.99
2023-03-28T04:41:46.322Z,7.98
2023-03-28T04:42:24.680Z,7.97
2023-03-28T04:43:00.679Z,7.96
2023-03-28T04:43:37.805Z,7.96
2023-03-28T04:44:02.058Z,7.97
2023-03-28T04:44:26.386Z,7.98
2023-03-28T04:44:59.229Z,7.99
2023-03-28T04:45:23.665Z,8.01
2023-03-28T04:45:47.523Z,8.02
2023-03-28T04:46:12.807Z,8.05
2023-03-28T04:46:36.378Z,8.07
2023-03-28T04:47:08.761Z,8.10
2023-03-28T04:47:32.497Z,8.14
2023-03-28T04:47:56.116Z,8.15
2023-03-28T04:48:19.680Z,8.18
2023-03-28T04:48:42.895Z,8.20
2023-03-28T04:49:08.870Z,8.21
2023-03-28T04:49:32.420Z,8.23
2023-03-28T04:49:56.120Z,8.24
2023-03-28T04:50:22.914Z,8.25
2023-03-28T04:50:46.965Z,8.26
2023-03-28T04:51:11.611Z,8.25
2023-03-28T04:51:35.941Z,8.26
2023-03-28T04:51:59.173Z,8.26
2023-03-28T04:52:22.376Z,8.25
2023-03-28T04:52:46.002Z,8.26
2023-03-28T04:53:10.747Z,8.25
2023-03-28T04:53:37.455Z,8.25
2023-03-28T04:54:23.979Z,8.25
2023-03-28T04:55:05.467Z,8.24
2023-03-28T04:55:31.798Z,8.24
2023-03-28T04:56:02.981Z,8.23
2023-03-28T04:56:29.982Z,8.22
2023-03-28T04:56:53.455Z,8.21
2023-03-28T04:57:22.156Z,8.21
2023-03-28T04:57:49.456Z,8.21
2023-03-28T04:58:16.177Z,8.21
2023-03-28T04:58:40.484Z,8.20
2023-03-28T04:59:03.791Z,8.19
2023-03-28T04:59:27.426Z,8.19
2023-03-28T04:59:50.661Z,8.19
2023-03-28T05:00:20.116Z,8.19
2023-03-28T05:01:03.760Z,8.21
2023-03-28T05:01:49.783Z,8.23
2023-03-28T05:02:26.254Z,8.26
2023-03-28T05:02:57.009Z,8.28
2023-03-28T05:03:22.641Z,8.30
2023-03-28T05:03:55.589Z,8.33
2023-03-28T05:04:19.420Z,8.34
2023-03-28T05:04:43.452Z,8.34
2023-03-28T05:05:07.812Z,8.35
2023-03-28T05:05:32.540Z,8.35
2023-03-28T05:05:56.292Z,8.35
2023-03-28T05:06:19.655Z,8.35
2023-03-28T05:06:43.022Z,8.34
2023-03-28T05:07:09.514Z,8.34
2023-03-28T05:07:57.678Z,8.34
2023-03-28T05:08:22.775Z,8.34
2023-03-28T05:08:45.739Z,8.34
2023-03-28T05:09:08.853Z,8.33
2023-03-28T05:09:32.283Z,8.32
2023-03-28T05:09:56.921Z,8.32
2023-03-28T05:10:25.872Z,8.31
2023-03-28T05:10:55.546Z,8.30
2023-03-28T05:11:19.251Z,8.30
2023-03-28T05:11:42.656Z,8.30
2023-03-28T05:12:06.298Z,8.30
2023-03-28T05:12:31.767Z,8.29
2023-03-28T05:12:59.890Z,8.29
2023-03-28T05:13:48.880Z,8.29
2023-03-28T05:14:26.622Z,8.31
2023-03-28T05:15:02.127Z,8.33
2023-03-28T05:15:26.568Z,8.35
2023-03-28T05:16:16.820Z,8.37
2023-03-28T05:17:01.161Z,8.40
2023-03-28T05:17:45.691Z,8.43
2023-03-28T05:18:29.110Z,8.44
2023-03-28T05:18:53.857Z,8.45
2023-03-28T05:19:22.087Z,8.45
2023-03-28T05:19:59.111Z,8.45
2023-03-28T05:20:29.002Z,8.46
2023-03-28T05:20:53.327Z,8.45
2023-03-28T05:21:17.067Z,8.46
2023-03-28T05:21:41.289Z,8.47
2023-03-28T05:22:04.396Z,8.47
2023-03-28T05:22:28.128Z,8.47
2023-03-28T05:22:54.620Z,8.47
2023-03-28T05:23:17.836Z,8.47
2023-03-28T05:23:43.397Z,8.46
2023-03-28T05:24:18.197Z,8.46
2023-03-28T05:24:45.786Z,8.46
2023-03-28T05:25:13.303Z,8.45
2023-03-28T05:25:36.823Z,8.46
2023-03-28T05:25:59.934Z,8.47
2023-03-28T05:26:25.913Z,8.47
2023-03-28T05:26:50.359Z,8.47
2023-03-28T05:27:18.098Z,8.48
2023-03-28T05:27:42.004Z,8.49
2023-03-28T05:28:05.341Z,8.51
2023-03-28T05:28:54.241Z,8.54
2023-03-28T05:29:17.332Z,8.57
2023-03-28T05:29:48.433Z,8.59
2023-03-28T05:30:14.399Z,8.60
2023-03-28T05:31:08.810Z,8.62
2023-03-28T05:31:33.082Z,8.64
2023-03-28T05:32:09.944Z,8.64
2023-03-28T05:32:34.146Z,8.64
2023-03-28T05:32:57.390Z,8.64
2023-03-28T05:33:21.870Z,8.64
2023-03-28T05:33:45.591Z,8.64
2023-03-28T05:34:17.192Z,8.64
2023-03-28T05:34:43.886Z,8.63
2023-03-28T05:35:08.763Z,8.64
2023-03-28T05:35:32.294Z,8.62
2023-03-28T05:35:55.698Z,8.62
2023-03-28T05:36:19.253Z,8.62
2023-03-28T05:36:47.134Z,8.61
2023-03-28T05:37:18.220Z,8.61
2023-03-28T05:37:46.903Z,8.60
2023-03-28T05:38:10.484Z,8.60
2023-03-28T05:38:34.618Z,8.60
2023-03-28T05:39:03.666Z,8.61
2023-03-28T05:39:28.421Z,8.62
2023-03-28T05:40:11.210Z,8.64
2023-03-28T05:40:36.536Z,8.66
2023-03-28T05:40:59.902Z,8.67
2023-03-28T05:41:23.137Z,8.68
2023-03-28T05:41:46.485Z,8.70
2023-03-28T05:42:14.946Z,8.71
2023-03-28T05:42:38.648Z,8.72
2023-03-28T05:43:07.183Z,8.74
2023-03-28T05:43:30.704Z,8.75
2023-03-28T05:43:53.838Z,8.77
2023-03-28T05:44:28.898Z,8.77
2023-03-28T05:45:15.541Z,8.78
2023-03-28T05:46:14.120Z,8.79
2023-03-28T05:46:38.491Z,8.78
2023-03-28T05:47:01.700Z,8.79
2023-03-28T05:47:25.055Z,8.79
2023-03-28T05:47:50.630Z,8.79
2023-03-28T05:48:19.142Z,8.79
2023-03-28T05:48:44.175Z,8.79
2023-03-28T05:49:14.652Z,8.79
2023-03-28T05:49:38.689Z,8.80
2023-03-28T05:50:02.313Z,8.80
2023-03-28T05:50:26.485Z,8.80
2023-03-28T05:50:54.986Z,8.80
2023-03-28T05:51:20.357Z,8.81
2023-03-28T05:51:43.481Z,8.82
2023-03-28T05:52:07.317Z,8.83
2023-03-28T05:52:30.821Z,8.84
2023-03-28T05:52:54.272Z,8.86
2023-03-28T05:53:17.559Z,8.88
2023-03-28T05:53:40.882Z,8.89
2023-03-28T05:54:06.551Z,8.91
2023-03-28T05:54:31.401Z,8.92
2023-03-28T05:54:57.715Z,8.95
2023-03-28T05:55:21.019Z,8.96
2023-03-28T05:55:46.064Z,8.99
2023-03-28T05:56:09.622Z,9.01
2023-03-28T05:56:35.854Z,9.02
2023-03-28T05:56:59.156Z,9.03
2023-03-28T05:57:22.670Z,9.05
2023-03-28T05:57:46.030Z,9.06
2023-03-28T05:58:11.288Z,9.07
2023-03-28T05:58:36.243Z,9.09
2023-03-28T05:58:59.271Z,9.09
2023-03-28T05:59:24.960Z,9.10
2023-03-28T05:59:48.612Z,9.10
2023-03-28T06:00:16.268Z,9.12
2023-03-28T06:00:44.841Z,9.12
2023-03-28T06:01:13.028Z,9.13
2023-03-28T06:01:40.778Z,9.13
2023-03-28T06:02:10.201Z,9.14
2023-03-28T06:02:33.880Z,9.14
2023-03-28T06:02:59.247Z,9.15
2023-03-28T06:03:57.663Z,9.15
2023-03-28T06:04:22.275Z,9.18
2023-03-28T06:04:47.756Z,9.20
2023-03-28T06:05:11.570Z,9.23
2023-03-28T06:05:34.749Z,9.25
2023-03-28T06:06:00.214Z,9.28
2023-03-28T06:06:23.444Z,9.30
2023-03-28T06:06:48.835Z,9.33
2023-03-28T06:07:14.060Z,9.35
2023-03-28T06:07:42.445Z,9.37
2023-03-28T06:08:09.619Z,9.38
2023-03-28T06:08:40.067Z,9.40
2023-03-28T06:09:06.255Z,9.40
2023-03-28T06:09:41.339Z,9.40
2023-03-28T06:10:09.570Z,9.42
2023-03-28T06:10:34.410Z,9.43
2023-03-28T06:11:13.090Z,9.43
2023-03-28T06:11:47.447Z,9.43
2023-03-28T06:12:10.755Z,9.43
2023-03-28T06:12:38.489Z,9.43
2023-03-28T06:13:02.504Z,9.43
2023-03-28T06:13:25.830Z,9.43
2023-03-28T06:13:49.256Z,9.43
2023-03-28T06:14:12.318Z,9.43
2023-03-28T06:14:36.403Z,9.43
2023-03-28T06:15:06.153Z,9.43
2023-03-28T06:15:36.651Z,9.43
2023-03-28T06:16:01.283Z,9.44
2023-03-28T06:16:31.557Z,9.45
2023-03-28T06:16:56.477Z,9.46
2023-03-28T06:17:19.749Z,9.48
2023-03-28T06:17:46.139Z,9.49
2023-03-28T06:18:09.457Z,9.50
2023-03-28T06:18:39.307Z,9.53
2023-03-28T06:19:16.572Z,9.55
2023-03-28T06:19:45.700Z,9.58
2023-03-28T06:20:10.345Z,9.60
2023-03-28T06:20:33.754Z,9.61
2023-03-28T06:20:57.259Z,9.63
2023-03-28T06:21:20.994Z,9.65
2023-03-28T06:21:46.606Z,9.66
2023-03-28T06:22:10.616Z,9.67
2023-03-28T06:22:34.539Z,9.68
2023-03-28T06:23:04.111Z,9.69
2023-03-28T06:23:27.555Z,9.68
2023-03-28T06:23:51.950Z,9.68
2023-03-28T06:24:22.236Z,9.67
2023-03-28T06:24:46.155Z,9.66
2023-03-28T06:25:09.739Z,9.64
2023-03-28T06:25:33.205Z,9.63
2023-03-28T06:25:56.316Z,9.61
2023-03-28T06:26:19.839Z,9.59
2023-03-28T06:26:43.164Z,9.57